出雲空港の過去48時間の天気

出雲空港 (Izumo)

現在時刻: 10/23 15:30 JST (10/23 06:30 UTC) 以下の時間は現地時間です。

過去48時間のMETAR気象情報
時間 風向 風速(m/s) 視程 気温(℃) 湿度(%) 気圧(hPa) 天気現象
23 15:00 東北東 7 10km以上 20 68 1016
23 14:00 北東 6 10km以上 21 69 1016
23 13:00 東北東 5 10km以上 21 69 1016
23 12:00 東北東 6 10km以上 21 69 1016
23 11:00 東北東 4 10km以上 21 69 1017
23 10:00 北東 3 10km以上 20 78 1017
23 09:00 北東 2 10km以上 18 83 1017
23 08:00 南南東 2 10km以上 16 88 1017 弱いしゅう雨
23 07:00 2 10km以上 14 94 1016 周辺でしゅう雨
23 06:30 不定 1 10km以上 14 94 1016 周辺でしゅう雨
23 06:10 不定 1 10km以上 14 94 1016 周辺でしゅう雨
22 06:30 不定 1 10km以上 17 94 1014
22 06:10 不定 1 10km以上 17 94 1014
21 20:00 不定 1 8000m 18 88 1015 弱いしゅう雨
21 19:42 2 6000m 18 88 1015 弱いしゅう雨 もや
21 19:29 2 4500m 18 88 1015 弱いしゅう雨 もや
21 19:00 東北東 3 10km以上 19 83 1014 周辺でしゅう雨
21 18:00 北北東 4 10km以上 19 83 1014
21 17:00 東北東 6 10km以上 19 83 1014
21 16:00 東北東 6 10km以上 19 78 1014
RJOC 230600Z 06014KT 9999 FEW025 SCT180 OVC/// 20/14 Q1016
RJOC 230500Z 05011KT 9999 FEW025 SCT150 BKN/// 21/15 Q1016
RJOC 230400Z 06010KT 9999 FEW025 BKN/// 21/15 Q1016
RJOC 230300Z 07012KT 9999 FEW025 BKN/// 21/15 Q1016
RJOC 230200Z 07008KT 9999 FEW020 SCT025 BKN/// 21/15 Q1017
RJOC 230100Z 04005KT 9999 FEW015 SCT025 BKN/// 20/16 Q1017
RJOC 230000Z 04003KT 010V080 9999 FEW003 SCT025 BKN050 18/15 Q1017
RJOC 222300Z 15004KT 9999 -SHRA FEW003 SCT020 BKN040 16/14 Q1017
RJOC 222200Z 19003KT 150V240 9999 VCSH FEW001 SCT035 BKN060 14/13 Q1016
RJOC 222130Z VRB02KT 9999 VCSH FEW001 SCT035 BKN060 14/13 Q1016
RJOC 222110Z VRB02KT 9999 VCSH FEW001 SCT025 BKN060 14/13 Q1016 RMK 1ST001 3CU025 5SC060 A3002 VCSH NW
RJOC 212130Z VRB01KT 9999 FEW008 SCT025 BKN035 17/16 Q1014
RJOC 212110Z VRB02KT 9999 FEW008 SCT025 BKN035 17/16 Q1014 RMK 1ST008 3CU025 5CU035 A2996
RJOC 211100Z VRB01KT 8000 -SHRA FEW005 SCT010 BKN015 18/16 Q1015
RJOC 211042Z 08003KT 6000 -SHRA BR FEW005 SCT007 BKN009 18/16 Q1015 RMK 1ST005 3ST007 5ST009 A2998
RJOC 211029Z 08004KT 040V130 4500 -SHRA BR FEW005 SCT007 BKN009 18/16 Q1015 RMK 1ST005 3ST007 5ST009 A2997
RJOC 211000Z 06005KT 9999 VCSH FEW010 BKN015 BKN020 19/16 Q1014
RJOC 210900Z 03008KT 9999 FEW010 BKN015 BKN020 19/16 Q1014
RJOC 210800Z 06011KT 9999 FEW010 BKN015 BKN020 19/16 Q1014
RJOC 210700Z 07012KT 9999 FEW015 SCT020 BKN045 19/15 Q1014